Gatesville, TX

5:19 AM CDT on April 28, 2015 (GMT -0500)
Rhudys on Cedar Ridge | | Change Station
CLOSE
Current Station
Personal Weather Station
Location: Gatesville, TX
Elevation: 1043 ft
Nearby Weather Stations

Elev 1043 ft 31.45 °N, 97.70 °W | Updated 8 seconds ago

Overcast
Overcast
54.6 °F
Feels Like 54.6 °F
N
2.3
Wind Variable Wind from NW
Gusts 2.3 mph

Today
High -- | Low -- °F
--% Chance of Precip.
Yesterday
High -- | Low -- °F
Precip. -- in
6:48 AM 8:08 PM
Waxing Gibbous, 72% visible
Pressure 29.93 in
Visibility 10.0 miles
Clouds Mostly Cloudy 1000 ft
Dew Point 52 °F
Humidity 91%
Rainfall 0.00 in
Snow Depth Not available.
UV 0 out of 12
Pollen 4.20 out of 12
Air Quality Not available.
Flu Activity Local Activity
METAR KGOP 280955Z AUTO 02006KT 10SM BKN010 13/11 A2993 RMK AO2

More Conditions Fewer Conditions

Pressure 29.93 in
Visibility 10.0 miles
Clouds Mostly Cloudy 1000 ft
Dew Point 52 °F
Humidity 91%
Rainfall 0.00 in
Snow Depth Not available.
UV 0 out of 12
Pollen 4.20 out of 12
Air Quality Not available.
Flu Activity Local Activity
METAR KGOP 280955Z AUTO 02006KT 10SM BKN010 13/11 A2993 RMK AO2

More Conditions Fewer Conditions

Nowcast | as of 4:42 am CDT on April 28, 2015

Light to moderate rain is occurring west of Interstate 35/35w early this morning. This rain activity is spreading east as an upper level low approaches the region. Rainfall totals through daybreak will average up to a quarter of an inch. A few lightning strikes are possible. Otherwise...it will continue to be cloudy and cool across the region with breezy northeast winds and temperatures in the 50s and lower 60s.

×

10-Day Weather Forecast

Almanac

Astronomy

Apr. 28, 2015 Rise Set
Actual Time
Civil Twilight
Nautical Twilight
Astronomical Twilight
Moon
Length of Visible Light
Length of Day
Tomorrow will be .
, % of the Moon is Illuminated

Today's Extremes

State Highs State Lows

Community

WunderPhotos

Upload Photos

1,817,600 photos uploaded!

WunderBlogs® & News

Nearby

Air Quality

  Air Quality AQ Index Pollutant
Not available.

Snow Depth

Station Depth Elevation

Earthquake Activity

City Distance Mag. Time & Date
Minimum magnitude displayed is 2.5.

Coastal Water Temperatures

Place Temperature

Stations

Nearby Weather Stations

Station Location Temp. Windchill Dew Point Humidity Wind Precip. Elev Updated Type